Skip Navigation LinksHome page > Weather > Current weather Skip Navigation Links

Current Weather

Istanbul / Ataturk, Turkey

For information only: do not use for flight planning or navigation.
Latest weather
Observation time Friday, May 14, 2021 2:50 PM +03
Local time Friday, May 14, 2021 3:29 PM +03
Flight conditions Visual Meteorological Conditions
Winds
Wind direction West (280°)
Winds variable from 220° to 320°
Wind speed 12 mph
Visibility 6.2 mi.
Sky condition
Ceiling unlimited
Cloud layer few clouds 4,000 ft.
Temperature 77°F
Dewpoint 54°F
Altimeter 29.85 in.Hg
Derived measurements
Relative humidity 44%
Heat index 77°F
Density altitude 1480 ft.
Remarks
No significant changes expected in the next two hours.
METAR LTBA 141150Z 28010KT 220V320 9999 FEW040 25/12 Q1011 NOSIG RMK RWY23 28011KT

Settings

Location code

InnerDrive.Weather 4.0.6770.0 Release CLR 4.0.30319.42000
Copyright ©2018 Inner Drive Technology. All rights reserved. Portions Copyright ©1986-2018 David Braverman.

Find weather

Site navigation


Skip Navigation Links

Place info

Page info

PayPal - The safer, easier way to pay online!

Return home.

Copyright ©2021 Inner Drive Technology. Purveyors of fine, hand-crafted computer software. Page printed 2021-05-14T12:29:43 UTC.